createdAt,value
2023-07-01T00:00:21.878Z,3.35
2023-07-01T00:05:24.632Z,8.50
2023-07-01T00:10:27.800Z,2.45
2023-07-01T00:15:31.013Z,2.22
2023-07-01T00:20:34.099Z,4.00
2023-07-01T00:25:36.756Z,4.68
2023-07-01T00:30:39.474Z,4.05
2023-07-01T00:35:42.176Z,4.78
2023-07-01T00:40:45.253Z,2.30
2023-07-01T00:45:47.963Z,3.35
2023-07-01T00:50:51.171Z,2.33
2023-07-01T00:55:54.906Z,2.33
2023-07-01T01:01:00.290Z,2.35
2023-07-01T01:06:25.383Z,3.05
2023-07-01T01:11:30.910Z,3.95
2023-07-01T01:16:35.413Z,2.40
2023-07-01T01:21:39.498Z,2.58
2023-07-01T01:26:44.766Z,3.70
2023-07-01T01:31:47.654Z,2.40
2023-07-01T01:36:56.082Z,1.98
2023-07-01T01:42:07.519Z,1.35
2023-07-01T01:47:10.407Z,2.13
2023-07-01T01:52:17.023Z,3.58
2023-07-01T01:57:20.399Z,3.05
2023-07-01T02:02:23.048Z,1.67
2023-07-01T02:07:26.049Z,1.02
2023-07-01T02:12:28.621Z,2.45
2023-07-01T02:17:31.312Z,2.40
2023-07-01T02:22:34.007Z,3.45
2023-07-01T02:27:36.585Z,2.55
2023-07-01T02:32:40.046Z,3.33
2023-07-01T02:37:42.592Z,5.25
2023-07-01T02:42:45.312Z,2.05
2023-07-01T02:47:47.991Z,3.33
2023-07-01T02:52:50.547Z,4.05
2023-07-01T02:57:53.266Z,3.80
2023-07-01T03:02:56.071Z,3.72
2023-07-01T03:07:58.655Z,2.85
2023-07-01T03:13:01.666Z,2.97
2023-07-01T03:18:05.056Z,4.50
2023-07-01T03:23:08.206Z,3.87
2023-07-01T03:28:10.919Z,3.22
2023-07-01T03:33:14.180Z,2.83
2023-07-01T03:38:17.050Z,3.67
2023-07-01T03:43:19.700Z,3.70
2023-07-01T03:48:22.508Z,6.30
2023-07-01T03:53:25.336Z,3.00
2023-07-01T03:58:27.877Z,3.03
2023-07-01T04:03:30.486Z,3.33
2023-07-01T04:08:33.147Z,3.13
2023-07-01T04:13:35.811Z,3.72
2023-07-01T04:18:38.584Z,6.93
2023-07-01T04:23:41.247Z,2.92
2023-07-01T04:28:43.882Z,5.70
2023-07-01T04:33:46.910Z,9.07
2023-07-01T04:38:49.898Z,7.35
2023-07-01T04:43:52.431Z,8.65
2023-07-01T04:48:55.146Z,4.40
2023-07-01T04:53:57.837Z,6.05
2023-07-01T04:59:00.558Z,7.50
2023-07-01T05:04:03.367Z,7.60
2023-07-01T05:09:07.871Z,7.40
2023-07-01T05:14:10.586Z,161.18
2023-07-01T05:19:13.246Z,117.32
2023-07-01T05:24:16.271Z,1721.95
2023-07-01T05:29:19.863Z,1999.90
2023-07-01T05:34:22.610Z,1999.90
2023-07-01T05:39:25.666Z,1999.90
2023-07-01T05:44:28.595Z,1999.90
2023-07-01T05:49:31.336Z,10.98
2023-07-01T05:54:33.975Z,1999.90
2023-07-01T05:59:36.885Z,19.83
2023-07-01T06:04:39.602Z,795.83
2023-07-01T06:09:49.275Z,541.55
2023-07-01T06:14:51.838Z,488.27
2023-07-01T06:19:54.531Z,385.67
2023-07-01T06:24:57.529Z,1999.90
2023-07-01T06:30:00.283Z,1999.90
2023-07-01T06:35:03.021Z,1999.90
2023-07-01T06:40:06.345Z,1999.90
2023-07-01T06:45:09.260Z,1999.90
2023-07-01T06:50:11.883Z,1999.90
2023-07-01T06:55:17.420Z,1999.90
2023-07-01T07:00:20.330Z,1999.90
2023-07-01T07:05:22.994Z,1999.90
2023-07-01T07:10:25.538Z,7.10
2023-07-01T07:15:28.223Z,5.75
2023-07-01T07:20:30.869Z,4.43
2023-07-01T07:25:37.467Z,3.13
2023-07-01T07:30:40.225Z,3.60
2023-07-01T07:35:43.006Z,2.20
2023-07-01T07:40:46.062Z,1.73
2023-07-01T07:45:49.170Z,2.75
2023-07-01T07:50:51.707Z,3.17
2023-07-01T07:55:54.390Z,42.50
2023-07-01T08:00:56.917Z,6.53
2023-07-01T08:05:59.597Z,5.05
2023-07-01T08:11:02.517Z,4.17
2023-07-01T08:16:06.670Z,6.77
2023-07-01T08:21:09.408Z,6.43
2023-07-01T08:26:12.134Z,4.45
2023-07-01T08:31:15.008Z,5.57
2023-07-01T08:36:17.833Z,5.63
2023-07-01T08:41:23.909Z,5.82
2023-07-01T08:46:26.859Z,7.28
2023-07-01T08:51:42.599Z,6.70
2023-07-01T08:56:49.395Z,7.47
2023-07-01T09:01:52.554Z,8.48
2023-07-01T09:06:55.386Z,5.93
2023-07-01T09:11:58.023Z,6.90
2023-07-01T09:17:00.646Z,4.15
2023-07-01T09:22:10.248Z,7.40
2023-07-01T09:27:12.921Z,7.82
2023-07-01T09:32:30.716Z,6.88
2023-07-01T09:37:34.394Z,8.18
2023-07-01T09:42:52.011Z,5.47
2023-07-01T09:47:54.978Z,8.65
2023-07-01T09:52:58.842Z,6.00
2023-07-01T09:58:01.528Z,8.27
2023-07-01T10:03:04.674Z,8.10
2023-07-01T10:08:08.221Z,8.98
2023-07-01T10:18:24.351Z,15.13
2023-07-01T10:23:45.578Z,11.13
2023-07-01T10:28:48.160Z,7.78
2023-07-01T10:33:54.871Z,7.63
2023-07-01T10:39:35.261Z,7.88
2023-07-01T10:44:38.064Z,5.80
2023-07-01T10:50:04.536Z,7.53
2023-07-01T10:55:46.685Z,5.40
2023-07-01T11:00:57.135Z,11.70
2023-07-01T11:06:00.367Z,105.07
2023-07-01T11:16:08.746Z,6.00
2023-07-01T11:21:13.494Z,4.88
2023-07-01T11:26:27.129Z,4.95
2023-07-01T11:31:34.487Z,6.97
2023-07-01T11:36:41.307Z,4.15
2023-07-01T11:41:46.514Z,4.43
2023-07-01T11:46:49.333Z,6.03
2023-07-01T11:51:56.974Z,4.97
2023-07-01T11:57:20.209Z,5.32
2023-07-01T12:02:34.187Z,4.72
2023-07-01T12:07:37.100Z,5.00
2023-07-01T12:12:40.027Z,4.95
2023-07-01T12:17:43.091Z,5.43
2023-07-01T12:22:45.792Z,6.23
2023-07-01T12:27:48.351Z,5.45
2023-07-01T12:32:52.318Z,5.40
2023-07-01T12:37:55.892Z,5.22
2023-07-01T12:48:02.732Z,4.30
2023-07-01T12:53:05.421Z,4.82
2023-07-01T12:58:08.152Z,5.63
2023-07-01T13:03:10.855Z,4.13
2023-07-01T13:08:14.796Z,4.30
2023-07-01T13:13:17.528Z,5.03
2023-07-01T13:18:24.638Z,4.07
2023-07-01T13:23:32.127Z,5.72
2023-07-01T13:28:36.121Z,6.07
2023-07-01T13:33:41.856Z,8.57
2023-07-01T13:38:44.645Z,6.53
2023-07-01T13:43:47.787Z,6.27
2023-07-01T13:48:51.467Z,7.82
2023-07-01T13:53:56.295Z,8.57
2023-07-01T13:58:59.405Z,6.82
2023-07-01T14:04:02.866Z,7.10
2023-07-01T14:09:05.723Z,7.90
2023-07-01T14:14:08.450Z,5.47
2023-07-01T14:19:12.930Z,7.03
2023-07-01T14:24:25.346Z,6.38
2023-07-01T14:29:29.263Z,7.32
2023-07-01T14:34:42.415Z,5.80
2023-07-01T14:39:55.677Z,6.63
2023-07-01T14:44:59.410Z,5.28
2023-07-01T14:55:05.171Z,6.18
2023-07-01T15:00:08.687Z,6.65
2023-07-01T15:10:14.048Z,6.63
2023-07-01T15:15:16.845Z,8.65
2023-07-01T15:20:19.525Z,7.00
2023-07-01T15:25:22.138Z,7.00
2023-07-01T15:30:24.794Z,7.68
2023-07-01T15:35:28.409Z,7.78
2023-07-01T15:40:32.192Z,8.40
2023-07-01T15:45:35.568Z,8.32
2023-07-01T15:50:38.229Z,9.00
2023-07-01T15:55:41.031Z,8.27
2023-07-01T16:00:43.698Z,9.75
2023-07-01T16:05:47.556Z,9.25
2023-07-01T16:16:02.040Z,7.78
2023-07-01T16:21:05.773Z,7.85
2023-07-01T16:31:23.296Z,9.00
2023-07-01T16:36:35.943Z,8.18
2023-07-01T16:41:38.691Z,20.92
2023-07-01T16:46:42.811Z,13.90
2023-07-01T16:51:45.813Z,8.30
2023-07-01T16:56:55.105Z,9.83
2023-07-01T17:01:58.674Z,8.60
2023-07-01T17:07:01.415Z,8.40
2023-07-01T17:12:04.510Z,9.20
2023-07-01T17:17:18.394Z,9.43
2023-07-01T17:22:23.909Z,8.55
2023-07-01T17:27:27.168Z,9.80
2023-07-01T17:32:30.785Z,10.40
2023-07-01T17:37:33.771Z,8.70
2023-07-01T17:42:36.662Z,9.10
2023-07-01T17:47:39.649Z,10.75
2023-07-01T17:52:42.603Z,8.67
2023-07-01T18:02:51.677Z,7.95
2023-07-01T18:07:54.457Z,7.35
2023-07-01T18:12:57.095Z,8.85
2023-07-01T18:17:59.781Z,8.60
2023-07-01T18:23:02.528Z,8.88
2023-07-01T18:28:05.287Z,9.07
2023-07-01T18:33:07.884Z,11.23
2023-07-01T18:38:10.611Z,9.30
2023-07-01T18:43:13.304Z,10.63
2023-07-01T18:48:16.027Z,8.68
2023-07-01T18:53:19.022Z,10.10
2023-07-01T18:58:23.121Z,9.95
2023-07-01T19:03:25.822Z,8.98
2023-07-01T19:08:28.552Z,9.82
2023-07-01T19:13:31.732Z,8.35
2023-07-01T19:18:34.671Z,6.85
2023-07-01T19:23:38.092Z,7.75
2023-07-01T19:28:40.810Z,8.13
2023-07-01T19:33:43.722Z,8.98
2023-07-01T19:38:46.539Z,8.02
2023-07-01T19:43:52.744Z,10.93
2023-07-01T19:48:55.718Z,11.20
2023-07-01T19:53:58.338Z,10.27
2023-07-01T19:59:01.012Z,9.77
2023-07-01T20:10:39.416Z,9.15
2023-07-01T20:15:44.966Z,10.20
2023-07-01T20:20:47.744Z,10.18
2023-07-01T20:25:50.481Z,10.20
2023-07-01T20:30:53.424Z,8.68
2023-07-01T20:35:56.341Z,10.43
2023-07-01T20:40:59.106Z,11.70
2023-07-01T20:46:01.667Z,11.07
2023-07-01T20:51:04.569Z,11.38
2023-07-01T20:56:07.229Z,11.35
2023-07-01T21:01:09.762Z,9.30
2023-07-01T21:06:12.497Z,8.57
2023-07-01T21:11:15.264Z,10.80
2023-07-01T21:16:17.793Z,11.02
2023-07-01T21:21:20.548Z,431.20
2023-07-01T21:26:28.402Z,549.97
2023-07-01T21:31:32.179Z,484.45
2023-07-01T21:36:34.996Z,2.60
2023-07-01T21:41:42.099Z,1.17
2023-07-01T21:46:44.938Z,1999.90
2023-07-01T21:51:48.537Z,274.40
2023-07-01T21:56:51.418Z,779.30
2023-07-01T22:01:54.118Z,513.50
2023-07-01T22:06:56.721Z,9.45
2023-07-01T22:11:59.227Z,8.88
2023-07-01T22:17:01.958Z,10.48
2023-07-01T22:22:04.619Z,777.10
2023-07-01T22:27:07.816Z,186.60
2023-07-01T22:32:10.549Z,15.63
2023-07-01T22:37:13.925Z,13.90
2023-07-01T22:42:16.505Z,477.03
2023-07-01T22:47:19.437Z,1656.65
2023-07-01T22:52:21.978Z,1999.90
2023-07-01T22:57:24.628Z,12.45
2023-07-01T23:02:27.611Z,42.83
2023-07-01T23:07:30.243Z,7.18
2023-07-01T23:12:34.551Z,21.92
2023-07-01T23:22:40.019Z,7.25
2023-07-01T23:27:45.655Z,677.58
2023-07-01T23:32:54.314Z,936.20
2023-07-01T23:37:58.903Z,53.35
2023-07-01T23:43:01.503Z,9.90
2023-07-01T23:48:04.331Z,12.80
2023-07-01T23:53:06.873Z,10.05
2023-07-01T23:58:09.384Z,10.18
